createdAt,value
2022-11-29T00:01:07.719Z,99176.47
2022-11-29T00:03:34.074Z,99179.88
2022-11-29T00:06:00.450Z,99184.88
2022-11-29T00:08:26.985Z,99183.63
2022-11-29T00:10:53.870Z,99177.50
2022-11-29T00:13:20.550Z,99179.13
2022-11-29T00:15:47.379Z,99174.81
2022-11-29T00:18:13.855Z,99175.00
2022-11-29T00:20:40.168Z,99180.56
2022-11-29T00:23:06.700Z,99176.34
2022-11-29T00:25:36.898Z,99173.28
2022-11-29T00:28:03.208Z,99181.03
2022-11-29T00:30:29.675Z,99182.09
2022-11-29T00:32:56.504Z,99183.09
2022-11-29T00:35:23.939Z,99178.00
2022-11-29T00:37:50.506Z,99184.56
2022-11-29T00:40:17.850Z,99177.41
2022-11-29T00:42:44.289Z,99183.16
2022-11-29T00:45:10.904Z,99181.19
2022-11-29T00:47:37.257Z,99178.88
2022-11-29T00:50:03.712Z,99172.72
2022-11-29T00:52:30.142Z,99174.78
2022-11-29T00:54:56.540Z,99188.63
2022-11-29T00:57:25.238Z,99176.31
2022-11-29T00:59:51.693Z,99179.28
2022-11-29T01:02:18.086Z,99178.47
2022-11-29T01:04:44.907Z,99173.47
2022-11-29T01:07:12.133Z,99172.28
2022-11-29T01:09:38.554Z,99184.28
2022-11-29T01:12:04.932Z,99179.72
2022-11-29T01:14:31.603Z,99177.19
2022-11-29T01:16:58.164Z,99171.19
2022-11-29T01:19:24.575Z,99179.28
2022-11-29T01:21:50.984Z,99172.47
2022-11-29T01:24:17.455Z,99176.66
2022-11-29T01:26:43.850Z,99173.06
2022-11-29T01:29:10.325Z,99173.84
2022-11-29T01:31:37.024Z,99184.66
2022-11-29T01:34:03.392Z,99174.72
2022-11-29T01:36:30.013Z,99179.75
2022-11-29T01:38:56.387Z,99182.28
2022-11-29T01:41:22.969Z,99174.78
2022-11-29T01:43:51.812Z,99180.03
2022-11-29T01:46:18.349Z,99174.69
2022-11-29T01:48:44.721Z,99168.66
2022-11-29T01:51:11.115Z,99169.09
2022-11-29T01:53:37.494Z,99169.94
2022-11-29T01:56:03.873Z,99162.41
2022-11-29T01:58:30.555Z,99171.53
2022-11-29T02:00:58.596Z,99174.19
2022-11-29T02:03:25.055Z,99173.22
2022-11-29T02:05:51.657Z,99166.31
2022-11-29T02:08:18.079Z,99176.16
2022-11-29T02:10:44.562Z,99176.13
2022-11-29T02:13:11.063Z,99176.13
2022-11-29T02:15:37.663Z,99177.13
2022-11-29T02:18:04.306Z,99169.56
2022-11-29T02:20:33.110Z,99170.22
2022-11-29T02:23:00.189Z,99173.78
2022-11-29T02:25:26.641Z,99164.47
2022-11-29T02:27:53.444Z,99168.66
2022-11-29T02:30:20.255Z,99165.16
2022-11-29T02:32:46.759Z,99168.69
2022-11-29T02:35:13.270Z,99164.25
2022-11-29T02:37:40.856Z,99171.84
2022-11-29T02:40:07.367Z,99176.72
2022-11-29T02:42:33.950Z,99175.38
2022-11-29T02:45:00.398Z,99172.13
2022-11-29T02:47:26.779Z,99167.59
2022-11-29T02:49:53.437Z,99170.94
2022-11-29T02:52:19.802Z,99177.28
2022-11-29T02:54:46.621Z,99182.09
2022-11-29T02:57:13.637Z,99189.16
2022-11-29T02:59:40.006Z,99182.53
2022-11-29T03:02:06.648Z,99182.97
2022-11-29T03:04:33.365Z,99191.09
2022-11-29T03:06:59.744Z,99195.03
2022-11-29T03:09:26.367Z,99198.16
2022-11-29T03:11:52.719Z,99194.97
2022-11-29T03:14:19.043Z,99191.63
2022-11-29T03:16:46.422Z,99200.38
2022-11-29T03:19:13.068Z,99198.59
2022-11-29T03:21:39.410Z,99201.19
2022-11-29T03:24:05.867Z,99192.97
2022-11-29T03:26:32.237Z,99202.88
2022-11-29T03:29:00.436Z,99203.91
2022-11-29T03:31:26.795Z,99208.22
2022-11-29T03:33:53.478Z,99200.84
2022-11-29T03:36:19.861Z,99202.91
2022-11-29T03:38:46.261Z,99207.91
2022-11-29T03:41:12.899Z,99211.66
2022-11-29T03:43:39.648Z,99216.72
2022-11-29T03:46:06.307Z,99212.63
2022-11-29T03:48:32.684Z,99207.34
2022-11-29T03:50:59.228Z,99212.19
2022-11-29T03:53:25.603Z,99210.25
2022-11-29T03:55:52.558Z,99201.34
2022-11-29T03:58:18.905Z,99212.91
2022-11-29T04:00:45.464Z,99201.84
2022-11-29T04:03:12.305Z,99212.66
2022-11-29T04:05:38.857Z,99208.41
2022-11-29T04:08:05.225Z,99217.88
2022-11-29T04:10:31.902Z,99214.88
2022-11-29T04:12:58.606Z,99215.56
2022-11-29T04:15:24.947Z,99210.66
2022-11-29T04:17:51.725Z,99216.88
2022-11-29T04:20:18.113Z,99218.84
2022-11-29T04:22:44.526Z,99213.84
2022-11-29T04:25:11.115Z,99206.75
2022-11-29T04:27:37.537Z,99209.19
2022-11-29T04:30:03.899Z,99214.41
2022-11-29T04:32:30.677Z,99210.41
2022-11-29T04:34:57.122Z,99220.81
2022-11-29T04:37:23.858Z,99218.50
2022-11-29T04:39:50.516Z,99228.59
2022-11-29T04:42:17.112Z,99220.31
2022-11-29T04:44:44.000Z,99229.97
2022-11-29T04:47:10.664Z,99225.59
2022-11-29T04:49:37.064Z,99225.84
2022-11-29T04:52:03.400Z,99233.50
2022-11-29T04:54:29.939Z,99246.38
2022-11-29T04:56:56.267Z,99232.44
2022-11-29T04:59:23.159Z,99245.53
2022-11-29T05:01:50.492Z,99237.75
2022-11-29T05:04:16.912Z,99241.63
2022-11-29T05:06:43.417Z,99240.56
2022-11-29T05:09:09.825Z,99245.09
2022-11-29T05:11:36.353Z,99253.97
2022-11-29T05:14:02.718Z,99246.88
2022-11-29T05:16:29.139Z,99254.84
2022-11-29T05:18:55.895Z,99264.09
2022-11-29T05:21:22.273Z,99260.56
2022-11-29T05:23:48.749Z,99257.50
2022-11-29T05:26:15.136Z,99266.63
2022-11-29T05:28:41.542Z,99264.22
2022-11-29T05:31:08.195Z,99274.53
2022-11-29T05:33:34.682Z,99278.47
2022-11-29T05:36:01.268Z,99274.38
2022-11-29T05:38:27.734Z,99275.38
2022-11-29T05:40:54.288Z,99272.81
2022-11-29T05:43:20.632Z,99274.47
2022-11-29T05:45:46.993Z,99284.38
2022-11-29T05:48:13.426Z,99277.94
2022-11-29T05:50:39.855Z,99278.22
2022-11-29T05:53:06.400Z,99276.09
2022-11-29T05:55:32.790Z,99284.50
2022-11-29T05:57:59.154Z,99285.16
2022-11-29T06:00:25.624Z,99282.34
2022-11-29T06:02:52.124Z,99282.63
2022-11-29T06:05:18.552Z,99286.53
2022-11-29T06:07:45.051Z,99284.94
2022-11-29T06:10:11.638Z,99285.47
2022-11-29T06:12:38.463Z,99295.81
2022-11-29T06:15:05.753Z,99285.19
2022-11-29T06:17:38.655Z,99285.75
2022-11-29T06:20:05.829Z,99292.66
2022-11-29T06:22:32.565Z,99292.94
2022-11-29T06:24:59.187Z,99291.00
2022-11-29T06:27:25.735Z,99296.34
2022-11-29T06:29:52.180Z,99304.25
2022-11-29T06:32:18.739Z,99309.50
2022-11-29T06:34:45.283Z,99305.03
2022-11-29T06:37:12.311Z,99317.38
2022-11-29T06:39:38.909Z,99315.81
2022-11-29T06:42:05.400Z,99313.63
2022-11-29T06:44:31.797Z,99316.09
2022-11-29T06:46:58.240Z,99314.00
2022-11-29T06:49:24.693Z,99321.41
2022-11-29T06:51:51.118Z,99316.22
2022-11-29T06:54:17.467Z,99315.63
2022-11-29T06:56:43.945Z,99321.50
2022-11-29T06:59:10.578Z,99316.44
2022-11-29T07:01:37.337Z,99328.09
2022-11-29T07:04:03.948Z,99321.69
2022-11-29T07:06:30.311Z,99329.97
2022-11-29T07:08:56.670Z,99331.13
2022-11-29T07:11:23.444Z,99333.69
2022-11-29T07:13:49.985Z,99322.94
2022-11-29T07:16:16.535Z,99332.94
2022-11-29T07:18:43.074Z,99326.94
2022-11-29T07:21:09.448Z,99332.22
2022-11-29T07:23:36.065Z,99326.66
2022-11-29T07:26:05.490Z,99336.28
2022-11-29T07:28:31.847Z,99329.72
2022-11-29T07:30:58.785Z,99335.19
2022-11-29T07:33:25.221Z,99331.13
2022-11-29T07:35:51.591Z,99334.22
2022-11-29T07:38:17.979Z,99340.72
2022-11-29T07:40:44.449Z,99336.66
2022-11-29T07:43:11.210Z,99350.69
2022-11-29T07:45:37.563Z,99348.00
2022-11-29T07:48:03.965Z,99333.16
2022-11-29T07:50:30.515Z,99342.06
2022-11-29T07:52:57.184Z,99346.31
2022-11-29T07:55:23.693Z,99353.78
2022-11-29T07:57:50.067Z,99354.41
2022-11-29T08:00:16.437Z,99360.66
2022-11-29T08:02:42.943Z,99350.81
2022-11-29T08:05:09.702Z,99370.19
2022-11-29T08:07:36.649Z,99373.94
2022-11-29T08:10:03.152Z,99359.53
2022-11-29T08:12:29.503Z,99366.69
2022-11-29T08:14:56.057Z,99364.75
2022-11-29T08:17:22.554Z,99363.03
2022-11-29T08:19:48.993Z,99361.31
2022-11-29T08:22:15.456Z,99373.31
2022-11-29T08:24:42.068Z,99364.44
2022-11-29T08:27:08.440Z,99365.63
2022-11-29T08:29:34.792Z,99371.38
2022-11-29T08:32:01.269Z,99367.72
2022-11-29T08:34:27.718Z,99383.50
2022-11-29T08:36:54.111Z,99384.53
2022-11-29T08:39:20.556Z,99379.97
2022-11-29T08:41:46.937Z,99380.59
2022-11-29T08:44:13.320Z,99375.59
2022-11-29T08:46:39.719Z,99375.81
2022-11-29T08:49:06.106Z,99392.31
2022-11-29T08:51:32.514Z,99391.72
2022-11-29T08:53:58.893Z,99381.34
2022-11-29T08:57:31.040Z,99388.19
2022-11-29T08:59:11.693Z,99396.56
2022-11-29T09:01:38.163Z,99398.56
2022-11-29T09:04:04.584Z,99395.16
2022-11-29T09:06:31.215Z,99402.44
2022-11-29T09:08:57.613Z,99407.09
2022-11-29T09:11:24.131Z,99407.75
2022-11-29T09:13:50.584Z,99402.06
2022-11-29T09:16:17.321Z,99394.72
2022-11-29T09:18:48.516Z,99396.31
2022-11-29T09:21:17.753Z,99396.84
2022-11-29T09:23:44.141Z,99401.09
2022-11-29T09:26:10.534Z,99401.97
2022-11-29T09:28:37.069Z,99393.03
2022-11-29T09:31:03.470Z,99397.56
2022-11-29T09:33:30.272Z,99401.94
2022-11-29T09:35:56.889Z,99400.09
2022-11-29T09:38:24.307Z,99404.25
2022-11-29T09:40:50.736Z,99397.25
2022-11-29T09:43:17.223Z,99402.53
2022-11-29T09:45:43.708Z,99405.94
2022-11-29T09:48:10.104Z,99396.91
2022-11-29T09:50:36.505Z,99401.66
2022-11-29T09:53:02.972Z,99398.97
2022-11-29T09:55:29.446Z,99397.44
2022-11-29T09:57:55.853Z,99395.66
2022-11-29T10:00:22.333Z,99386.66
2022-11-29T10:02:49.001Z,99401.69
2022-11-29T10:05:15.836Z,99394.84
2022-11-29T10:07:42.396Z,99400.00
2022-11-29T10:10:08.806Z,99401.84
2022-11-29T10:12:35.574Z,99392.28
2022-11-29T10:15:01.927Z,99393.25
2022-11-29T10:17:28.402Z,99386.03
2022-11-29T10:19:55.468Z,99380.84
2022-11-29T10:22:21.874Z,99385.78
2022-11-29T10:24:48.428Z,99380.53
2022-11-29T10:27:15.483Z,99381.13
2022-11-29T10:29:41.978Z,99368.53
2022-11-29T10:32:10.340Z,99373.84
2022-11-29T10:34:36.885Z,99367.25
2022-11-29T10:37:03.294Z,99378.00
2022-11-29T10:39:29.747Z,99376.38
2022-11-29T10:41:56.176Z,99371.09
2022-11-29T10:44:22.563Z,99368.72
2022-11-29T10:46:49.251Z,99370.38
2022-11-29T10:49:15.935Z,99370.03
2022-11-29T10:51:42.424Z,99366.53
2022-11-29T10:54:08.986Z,99365.03
2022-11-29T10:56:35.496Z,99367.97
2022-11-29T10:59:01.855Z,99365.06
2022-11-29T11:01:28.232Z,99364.63
2022-11-29T11:03:54.777Z,99368.72
2022-11-29T11:06:21.215Z,99357.47
2022-11-29T11:08:47.983Z,99367.31
2022-11-29T11:11:14.588Z,99364.47
2022-11-29T11:13:41.089Z,99365.88
2022-11-29T11:16:07.648Z,99367.41
2022-11-29T11:18:34.056Z,99368.03
2022-11-29T11:21:00.758Z,99367.78
2022-11-29T11:23:27.315Z,99376.97
2022-11-29T11:25:53.846Z,99380.66
2022-11-29T11:28:20.201Z,99384.78
2022-11-29T11:30:46.611Z,99374.75
2022-11-29T11:33:13.086Z,99369.66
2022-11-29T11:35:39.490Z,99383.97
2022-11-29T11:38:05.873Z,99370.94
2022-11-29T11:40:32.365Z,99375.22
2022-11-29T11:42:58.782Z,99380.22
2022-11-29T11:45:26.565Z,99374.19
2022-11-29T11:47:53.027Z,99379.22
2022-11-29T11:50:19.401Z,99372.56
2022-11-29T11:52:50.425Z,99367.63
2022-11-29T11:55:17.306Z,99377.88
2022-11-29T11:57:43.803Z,99372.56
2022-11-29T12:00:10.171Z,99374.94
2022-11-29T12:02:36.909Z,99368.91
2022-11-29T12:05:03.567Z,99365.78
2022-11-29T12:07:59.661Z,99371.38
2022-11-29T12:10:16.652Z,99364.44
2022-11-29T12:12:43.083Z,99362.72
2022-11-29T12:15:09.503Z,99368.81
2022-11-29T12:17:35.928Z,99370.06
2022-11-29T12:20:02.534Z,99368.75
2022-11-29T12:22:28.965Z,99373.75
2022-11-29T12:24:55.555Z,99368.81
2022-11-29T12:27:22.511Z,99363.53
2022-11-29T12:29:49.241Z,99364.94
2022-11-29T12:32:16.087Z,99370.66
2022-11-29T12:34:43.314Z,99359.41
2022-11-29T12:37:10.171Z,99363.63
2022-11-29T12:39:36.578Z,99370.50
2022-11-29T12:42:03.392Z,99358.91
2022-11-29T12:44:29.718Z,99368.78
2022-11-29T12:47:13.261Z,99363.22
2022-11-29T12:49:42.610Z,99363.22
2022-11-29T12:52:09.292Z,99363.13
2022-11-29T12:54:35.749Z,99362.38
2022-11-29T12:57:02.120Z,99373.03
2022-11-29T12:59:28.454Z,99370.16
2022-11-29T13:01:55.382Z,99368.34
2022-11-29T13:04:22.876Z,99367.31
2022-11-29T13:06:49.303Z,99375.25
2022-11-29T13:09:15.867Z,99371.59
2022-11-29T13:11:42.615Z,99370.56
2022-11-29T13:14:40.903Z,99370.41
2022-11-29T13:16:55.570Z,99369.63
2022-11-29T13:19:21.926Z,99386.13
2022-11-29T13:21:48.323Z,99370.91
2022-11-29T13:24:15.805Z,99374.28
2022-11-29T13:26:42.415Z,99382.50
2022-11-29T13:29:08.802Z,99392.41
2022-11-29T13:31:35.524Z,99381.31
2022-11-29T13:34:02.018Z,99382.69
2022-11-29T13:36:28.622Z,99382.25
2022-11-29T13:38:55.003Z,99393.97
2022-11-29T13:41:21.394Z,99386.22
2022-11-29T13:43:47.741Z,99395.91
2022-11-29T13:46:15.212Z,99395.75
2022-11-29T13:48:41.885Z,99389.69
2022-11-29T13:51:08.577Z,99395.06
2022-11-29T13:53:34.914Z,99392.75
2022-11-29T13:56:01.457Z,99396.47
2022-11-29T13:58:28.150Z,99396.91
2022-11-29T14:00:54.551Z,99396.19
2022-11-29T14:03:21.038Z,99397.63
2022-11-29T14:05:47.464Z,99399.19
2022-11-29T14:08:17.805Z,99397.53
2022-11-29T14:10:44.497Z,99411.00
2022-11-29T14:13:10.840Z,99408.72
2022-11-29T14:15:37.361Z,99402.91
2022-11-29T14:18:03.837Z,99406.31
2022-11-29T14:20:30.196Z,99403.38
2022-11-29T14:22:56.572Z,99405.31
2022-11-29T14:25:49.866Z,99404.16
2022-11-29T14:28:09.338Z,99406.59
2022-11-29T14:30:35.788Z,99406.72
2022-11-29T14:33:02.165Z,99411.84
2022-11-29T14:35:29.050Z,99414.38
2022-11-29T14:37:56.209Z,99411.00
2022-11-29T14:40:22.895Z,99418.09
2022-11-29T14:42:49.497Z,99410.69
2022-11-29T14:45:15.977Z,99416.66
2022-11-29T14:47:42.358Z,99422.66
2022-11-29T14:50:09.001Z,99419.72
2022-11-29T14:52:36.003Z,99420.00
2022-11-29T14:55:02.631Z,99423.59
2022-11-29T14:57:29.278Z,99430.00
2022-11-29T14:59:55.784Z,99426.63
2022-11-29T15:02:22.612Z,99426.09
2022-11-29T15:04:49.048Z,99432.81
2022-11-29T15:07:15.716Z,99425.59
2022-11-29T15:09:42.239Z,99426.16
2022-11-29T15:12:08.606Z,99428.09
2022-11-29T15:14:35.057Z,99430.50
2022-11-29T15:17:01.573Z,99442.44
2022-11-29T15:19:28.151Z,99433.69
2022-11-29T15:21:54.759Z,99433.50
2022-11-29T15:24:26.730Z,99448.44
2022-11-29T15:26:54.998Z,99444.31
2022-11-29T15:29:21.704Z,99447.53
2022-11-29T15:31:48.565Z,99451.78
2022-11-29T15:34:17.337Z,99449.13
2022-11-29T15:36:44.066Z,99445.00
2022-11-29T15:39:11.103Z,99443.78
2022-11-29T15:41:37.488Z,99443.50
2022-11-29T15:44:04.865Z,99448.00
2022-11-29T15:46:31.324Z,99444.31
2022-11-29T15:48:58.144Z,99441.03
2022-11-29T15:51:24.589Z,99448.53
2022-11-29T15:53:56.839Z,99443.69
2022-11-29T15:56:31.608Z,99449.72
2022-11-29T15:58:57.989Z,99456.44
2022-11-29T16:01:24.513Z,99447.28
2022-11-29T16:03:51.100Z,99454.72
2022-11-29T16:06:17.481Z,99455.84
2022-11-29T16:08:43.855Z,99455.91
2022-11-29T16:11:12.605Z,99456.41
2022-11-29T16:13:38.978Z,99450.22
2022-11-29T16:16:05.411Z,99455.72
2022-11-29T16:18:32.050Z,99455.25
2022-11-29T16:20:58.489Z,99458.41
2022-11-29T16:23:25.209Z,99451.44
2022-11-29T16:25:52.081Z,99462.53
2022-11-29T16:28:19.003Z,99454.84
2022-11-29T16:30:45.471Z,99455.84
2022-11-29T16:33:12.457Z,99451.34
2022-11-29T16:35:39.305Z,99457.50
2022-11-29T16:38:06.511Z,99447.28
2022-11-29T16:40:33.921Z,99447.22
2022-11-29T16:43:00.624Z,99454.25
2022-11-29T16:45:28.033Z,99463.78
2022-11-29T16:47:54.958Z,99459.28
2022-11-29T16:50:24.375Z,99466.75
2022-11-29T16:52:56.374Z,99463.22
2022-11-29T16:55:23.170Z,99460.50
2022-11-29T16:57:49.542Z,99468.50
2022-11-29T17:00:16.355Z,99478.78
2022-11-29T17:02:47.587Z,99476.22
2022-11-29T17:05:14.045Z,99479.03
2022-11-29T17:07:40.831Z,99487.31
2022-11-29T17:10:07.468Z,99483.81
2022-11-29T17:12:34.245Z,99486.19
2022-11-29T17:15:02.355Z,99477.63
2022-11-29T17:17:28.896Z,99482.78
2022-11-29T17:19:55.393Z,99483.03
2022-11-29T17:22:21.975Z,99487.16
2022-11-29T17:24:48.774Z,99490.13
2022-11-29T17:27:15.671Z,99488.84
2022-11-29T17:29:42.245Z,99485.16
2022-11-29T17:32:09.469Z,99487.28
2022-11-29T17:34:36.986Z,99487.13
2022-11-29T17:37:03.794Z,99488.16
2022-11-29T17:39:30.241Z,99488.03
2022-11-29T17:41:57.411Z,99497.19
2022-11-29T17:44:23.878Z,99492.22
2022-11-29T17:46:51.723Z,99500.84
2022-11-29T17:49:20.813Z,99501.63
2022-11-29T17:51:52.226Z,99501.25
2022-11-29T17:54:22.767Z,99511.72
2022-11-29T17:56:49.760Z,99506.53
2022-11-29T17:59:20.912Z,99509.25
2022-11-29T18:01:48.748Z,99513.41
2022-11-29T18:04:18.250Z,99511.75
2022-11-29T18:06:44.672Z,99523.47
2022-11-29T18:09:11.635Z,99519.09
2022-11-29T18:11:46.918Z,99519.66
2022-11-29T18:14:15.337Z,99518.97
2022-11-29T18:16:48.046Z,99519.16
2022-11-29T18:19:15.001Z,99523.91
2022-11-29T18:21:41.730Z,99513.31
2022-11-29T18:24:08.621Z,99521.44
2022-11-29T18:26:35.563Z,99516.16
2022-11-29T18:29:02.406Z,99513.63
2022-11-29T18:31:29.562Z,99519.47
2022-11-29T18:33:57.371Z,99523.03
2022-11-29T18:36:24.235Z,99511.19
2022-11-29T18:38:51.265Z,99520.56
2022-11-29T18:41:18.148Z,99513.22
2022-11-29T18:43:48.445Z,99523.22
2022-11-29T18:46:15.926Z,99521.09
2022-11-29T18:48:43.497Z,99526.19
2022-11-29T18:51:10.359Z,99521.19
2022-11-29T18:53:37.301Z,99524.66
2022-11-29T18:56:04.115Z,99526.34
2022-11-29T18:58:30.946Z,99524.66
2022-11-29T19:00:58.264Z,99532.56
2022-11-29T19:03:34.965Z,99536.38
2022-11-29T19:06:03.753Z,99542.56
2022-11-29T19:08:32.647Z,99538.13
2022-11-29T19:10:59.546Z,99538.13
2022-11-29T19:13:26.668Z,99533.91
2022-11-29T19:15:53.314Z,99536.53
2022-11-29T19:18:21.089Z,99532.84
2022-11-29T19:20:57.951Z,99530.22
2022-11-29T19:23:26.027Z,99529.53
2022-11-29T19:25:52.910Z,99534.09
2022-11-29T19:28:24.749Z,99531.69
2022-11-29T19:30:52.501Z,99533.28
2022-11-29T19:33:20.177Z,99536.59
2022-11-29T19:35:47.163Z,99545.31
2022-11-29T19:38:14.192Z,99536.66
2022-11-29T19:40:42.079Z,99538.31
2022-11-29T19:43:10.102Z,99543.66
2022-11-29T19:45:37.099Z,99552.66
2022-11-29T19:48:04.203Z,99543.94
2022-11-29T19:50:31.333Z,99546.13
2022-11-29T19:52:58.183Z,99556.44
2022-11-29T19:55:25.063Z,99548.72
2022-11-29T19:57:51.916Z,99544.56
2022-11-29T20:00:19.346Z,99556.19
2022-11-29T20:02:46.449Z,99557.69
2022-11-29T20:05:13.521Z,99557.09
2022-11-29T20:07:40.527Z,99556.50
2022-11-29T20:10:07.491Z,99552.50
2022-11-29T20:12:34.386Z,99551.63
2022-11-29T20:15:01.116Z,99552.78
2022-11-29T20:20:08.816Z,99557.00
2022-11-29T20:22:35.793Z,99559.66
2022-11-29T20:25:02.462Z,99569.41
2022-11-29T20:27:30.367Z,99568.31
2022-11-29T20:30:00.323Z,99573.69
2022-11-29T20:32:29.932Z,99575.06
2022-11-29T20:34:56.860Z,99574.81
2022-11-29T20:37:24.420Z,99569.31
2022-11-29T20:39:50.964Z,99566.16
2022-11-29T20:42:25.328Z,99578.13
2022-11-29T20:44:52.291Z,99574.50
2022-11-29T20:47:20.239Z,99565.94
2022-11-29T20:49:47.363Z,99573.13
2022-11-29T20:52:15.468Z,99580.22
2022-11-29T20:54:43.197Z,99569.28
2022-11-29T20:57:10.157Z,99575.72
2022-11-29T20:59:36.634Z,99568.16
2022-11-29T21:02:03.635Z,99571.44
2022-11-29T21:04:30.439Z,99572.88
2022-11-29T21:07:00.056Z,99576.25
2022-11-29T21:09:28.477Z,99577.94
2022-11-29T21:11:55.454Z,99574.44
2022-11-29T21:14:21.828Z,99577.88
2022-11-29T21:16:48.335Z,99576.81
2022-11-29T21:19:15.955Z,99583.06
2022-11-29T21:21:42.589Z,99578.03
2022-11-29T21:24:09.056Z,99577.22
2022-11-29T21:26:41.338Z,99580.56
2022-11-29T21:29:08.268Z,99590.00
2022-11-29T21:31:35.106Z,99588.16
2022-11-29T21:34:01.706Z,99581.28
2022-11-29T21:36:28.102Z,99578.00
2022-11-29T21:38:55.392Z,99579.69
2022-11-29T21:41:22.024Z,99578.78
2022-11-29T21:44:05.949Z,99582.25
2022-11-29T21:46:33.573Z,99577.03
2022-11-29T21:49:00.430Z,99571.69
2022-11-29T21:51:26.864Z,99580.19
2022-11-29T21:53:54.646Z,99574.16
2022-11-29T21:56:21.079Z,99569.06
2022-11-29T21:58:47.933Z,99579.66
2022-11-29T22:01:15.396Z,99579.69
2022-11-29T22:03:41.944Z,99582.44
2022-11-29T22:06:08.383Z,99573.06
2022-11-29T22:08:34.774Z,99575.06
2022-11-29T22:11:01.382Z,99572.38
2022-11-29T22:13:27.971Z,99575.09
2022-11-29T22:15:54.403Z,99564.59
2022-11-29T22:18:20.979Z,99575.00
2022-11-29T22:20:47.592Z,99571.59
2022-11-29T22:23:14.378Z,99576.69
2022-11-29T22:25:40.833Z,99565.22
2022-11-29T22:28:07.272Z,99570.84
2022-11-29T22:30:33.679Z,99573.34
2022-11-29T22:33:00.436Z,99577.00
2022-11-29T22:35:26.868Z,99566.63
2022-11-29T22:37:53.435Z,99568.00
2022-11-29T22:40:20.028Z,99560.06
2022-11-29T22:42:47.140Z,99567.09
2022-11-29T22:45:13.565Z,99561.22
2022-11-29T22:47:39.998Z,99556.13
2022-11-29T22:50:06.365Z,99558.63
2022-11-29T22:52:32.968Z,99559.59
2022-11-29T22:55:04.492Z,99568.34
2022-11-29T22:57:31.498Z,99566.56
2022-11-29T22:59:58.070Z,99569.03
2022-11-29T23:02:24.463Z,99572.53
2022-11-29T23:04:51.072Z,99575.25
2022-11-29T23:07:18.053Z,99576.06
2022-11-29T23:09:47.766Z,99577.19
2022-11-29T23:12:14.248Z,99575.41
2022-11-29T23:14:40.637Z,99570.56
2022-11-29T23:17:07.089Z,99580.75
2022-11-29T23:19:34.530Z,99584.88
2022-11-29T23:22:00.994Z,99585.75
2022-11-29T23:24:27.467Z,99581.19
2022-11-29T23:26:53.867Z,99579.63
2022-11-29T23:29:20.323Z,99577.94
2022-11-29T23:31:46.753Z,99582.50
2022-11-29T23:34:13.824Z,99575.78
2022-11-29T23:36:43.345Z,99581.81
2022-11-29T23:39:12.548Z,99576.69
2022-11-29T23:41:39.014Z,99575.13
2022-11-29T23:44:05.443Z,99575.84
2022-11-29T23:46:31.926Z,99575.19
2022-11-29T23:48:58.430Z,99569.75
2022-11-29T23:51:24.860Z,99567.16
2022-11-29T23:53:51.466Z,99575.78
2022-11-29T23:56:18.008Z,99576.59
2022-11-29T23:58:44.544Z,99568.78
